sensor_id;sensor_type;location;lat;lon;timestamp;pressure;altitude;pressure_sealevel;temperature;humidity
40574;BME280;26283;49.020;8.644;2023-03-13T00:01:32;98745.88;;;10.25;54.81
40574;BME280;26283;49.020;8.644;2023-03-13T00:03:59;98745.88;;;10.25;54.83
40574;BME280;26283;49.020;8.644;2023-03-13T00:06:26;98744.84;;;10.26;54.82
40574;BME280;26283;49.020;8.644;2023-03-13T00:08:53;98749.41;;;10.26;54.81
40574;BME280;26283;49.020;8.644;2023-03-13T00:11:19;98747.53;;;10.26;54.80
40574;BME280;26283;49.020;8.644;2023-03-13T00:13:44;98743.78;;;10.27;54.81
40574;BME280;26283;49.020;8.644;2023-03-13T00:16:12;98738.41;;;10.27;54.80
40574;BME280;26283;49.020;8.644;2023-03-13T00:18:38;98732.19;;;10.27;54.80
40574;BME280;26283;49.020;8.644;2023-03-13T00:21:08;98731.16;;;10.28;54.83
40574;BME280;26283;49.020;8.644;2023-03-13T00:23:35;98723.06;;;10.28;54.82
40574;BME280;26283;49.020;8.644;2023-03-13T00:26:04;98717.69;;;10.28;54.79
40574;BME280;26283;49.020;8.644;2023-03-13T00:28:31;98709.38;;;10.29;54.79
40574;BME280;26283;49.020;8.644;2023-03-13T00:31:07;98723.06;;;10.28;54.77
40574;BME280;26283;49.020;8.644;2023-03-13T00:33:35;98705.03;;;10.28;54.81
40574;BME280;26283;49.020;8.644;2023-03-13T00:36:02;98714.75;;;10.29;54.80
40574;BME280;26283;49.020;8.644;2023-03-13T00:38:30;98705.84;;;10.29;54.83
40574;BME280;26283;49.020;8.644;2023-03-13T00:41:00;98695.09;;;10.29;54.85
40574;BME280;26283;49.020;8.644;2023-03-13T00:43:26;98699.41;;;10.30;54.85
40574;BME280;26283;49.020;8.644;2023-03-13T00:45:52;98688.66;;;10.30;54.80
40574;BME280;26283;49.020;8.644;2023-03-13T00:48:17;98689.25;;;10.32;54.78
40574;BME280;26283;49.020;8.644;2023-03-13T00:50:42;98690.28;;;10.31;54.78
40574;BME280;26283;49.020;8.644;2023-03-13T00:53:08;98681.97;;;10.33;54.79
40574;BME280;26283;49.020;8.644;2023-03-13T00:55:33;98673.91;;;10.33;54.79
40574;BME280;26283;49.020;8.644;2023-03-13T00:57:58;98669.34;;;10.33;54.79
40574;BME280;26283;49.020;8.644;2023-03-13T01:00:24;98664.19;;;10.32;54.78
40574;BME280;26283;49.020;8.644;2023-03-13T01:02:49;98666.66;;;10.33;54.78
40574;BME280;26283;49.020;8.644;2023-03-13T01:05:15;98664.78;;;10.34;54.79
40574;BME280;26283;49.020;8.644;2023-03-13T01:07:40;98662.06;;;10.34;54.78
40574;BME280;26283;49.020;8.644;2023-03-13T01:10:06;98653.78;;;10.35;54.77
40574;BME280;26283;49.020;8.644;2023-03-13T01:12:31;98657.28;;;10.36;54.76
40574;BME280;26283;49.020;8.644;2023-03-13T01:14:56;98650.25;;;10.35;54.75
40574;BME280;26283;49.020;8.644;2023-03-13T01:17:22;98654.59;;;10.36;54.76
40574;BME280;26283;49.020;8.644;2023-03-13T01:19:47;98641.94;;;10.36;54.78
40574;BME280;26283;49.020;8.644;2023-03-13T01:22:14;98639.25;;;10.36;54.78
40574;BME280;26283;49.020;8.644;2023-03-13T01:24:39;98639.25;;;10.36;54.75
40574;BME280;26283;49.020;8.644;2023-03-13T01:27:04;98632.00;;;10.37;54.78
40574;BME280;26283;49.020;8.644;2023-03-13T01:29:30;98632.59;;;10.39;54.77
40574;BME280;26283;49.020;8.644;2023-03-13T01:31:55;98626.38;;;10.38;54.74
40574;BME280;26283;49.020;8.644;2023-03-13T01:34:20;98622.88;;;10.38;54.76
40574;BME280;26283;49.020;8.644;2023-03-13T01:36:46;98624.50;;;10.39;54.75
40574;BME280;26283;49.020;8.644;2023-03-13T01:39:15;98612.91;;;10.38;54.75
40574;BME280;26283;49.020;8.644;2023-03-13T01:41:40;98604.00;;;10.38;54.74
40574;BME280;26283;49.020;8.644;2023-03-13T01:44:19;98597.56;;;10.39;54.76
40574;BME280;26283;49.020;8.644;2023-03-13T01:46:45;98594.88;;;10.39;54.76
40574;BME280;26283;49.020;8.644;2023-03-13T01:49:22;98587.62;;;10.39;54.79
40574;BME280;26283;49.020;8.644;2023-03-13T01:51:49;98591.91;;;10.40;54.79
40574;BME280;26283;49.020;8.644;2023-03-13T01:57:04;98574.94;;;10.40;54.76
40574;BME280;26283;49.020;8.644;2023-03-13T01:59:37;98569.56;;;10.40;54.78
40574;BME280;26283;49.020;8.644;2023-03-13T02:02:04;98570.38;;;10.40;54.78
40574;BME280;26283;49.020;8.644;2023-03-13T02:04:35;98569.56;;;10.40;54.78
40574;BME280;26283;49.020;8.644;2023-03-13T02:07:05;98570.38;;;10.40;54.79
40574;BME280;26283;49.020;8.644;2023-03-13T02:09:33;98562.28;;;10.40;54.78
40574;BME280;26283;49.020;8.644;2023-03-13T02:12:07;98566.63;;;10.41;54.79
40574;BME280;26283;49.020;8.644;2023-03-13T02:14:36;98555.84;;;10.41;54.80
40574;BME280;26283;49.020;8.644;2023-03-13T02:17:03;98570.16;;;10.42;54.81
40574;BME280;26283;49.020;8.644;2023-03-13T02:19:44;98558.31;;;10.43;54.79
40574;BME280;26283;49.020;8.644;2023-03-13T02:27:33;98542.97;;;10.43;54.75
40574;BME280;26283;49.020;8.644;2023-03-13T02:29:58;98538.41;;;10.44;54.72
40574;BME280;26283;49.020;8.644;2023-03-13T02:32:26;98542.16;;;10.43;54.74
40574;BME280;26283;49.020;8.644;2023-03-13T02:34:58;98533.84;;;10.44;54.74
40574;BME280;26283;49.020;8.644;2023-03-13T02:37:27;98526.59;;;10.45;54.73
40574;BME280;26283;49.020;8.644;2023-03-13T02:39:54;98523.88;;;10.45;54.74
40574;BME280;26283;49.020;8.644;2023-03-13T02:42:21;98522.00;;;10.45;54.73
40574;BME280;26283;49.020;8.644;2023-03-13T02:44:47;98516.41;;;10.47;54.74
40574;BME280;26283;49.020;8.644;2023-03-13T02:47:20;98506.69;;;10.46;54.73
40574;BME280;26283;49.020;8.644;2023-03-13T02:49:46;98503.75;;;10.47;54.75
40574;BME280;26283;49.020;8.644;2023-03-13T02:54:43;98494.03;;;10.46;54.73
40574;BME280;26283;49.020;8.644;2023-03-13T02:57:10;98487.34;;;10.49;54.73
40574;BME280;26283;49.020;8.644;2023-03-13T02:59:35;98498.13;;;10.49;54.73
40574;BME280;26283;49.020;8.644;2023-03-13T03:02:01;98491.09;;;10.48;54.71
40574;BME280;26283;49.020;8.644;2023-03-13T03:04:27;98497.88;;;10.50;54.71
40574;BME280;26283;49.020;8.644;2023-03-13T03:06:52;98486.28;;;10.50;54.71
40574;BME280;26283;49.020;8.644;2023-03-13T03:09:19;98462.88;;;10.50;54.70
40574;BME280;26283;49.020;8.644;2023-03-13T03:11:45;98475.53;;;10.50;54.71
40574;BME280;26283;49.020;8.644;2023-03-13T03:14:11;98473.66;;;10.50;54.69
40574;BME280;26283;49.020;8.644;2023-03-13T03:16:37;98471.78;;;10.51;54.70
40574;BME280;26283;49.020;8.644;2023-03-13T03:19:03;98469.91;;;10.51;54.68
40574;BME280;26283;49.020;8.644;2023-03-13T03:21:28;98472.34;;;10.53;54.68
40574;BME280;26283;49.020;8.644;2023-03-13T03:23:53;98459.94;;;10.52;54.67
40574;BME280;26283;49.020;8.644;2023-03-13T03:26:19;98457.84;;;10.54;54.66
40574;BME280;26283;49.020;8.644;2023-03-13T03:28:44;98461.59;;;10.53;54.65
40574;BME280;26283;49.020;8.644;2023-03-13T03:31:11;98458.66;;;10.54;54.65
40574;BME280;26283;49.020;8.644;2023-03-13T03:33:38;98463.22;;;10.54;54.65
40574;BME280;26283;49.020;8.644;2023-03-13T03:36:06;98461.34;;;10.54;54.64
40574;BME280;26283;49.020;8.644;2023-03-13T03:38:32;98464.88;;;10.55;54.63
40574;BME280;26283;49.020;8.644;2023-03-13T03:40:58;98468.37;;;10.55;54.63
40574;BME280;26283;49.020;8.644;2023-03-13T03:43:23;98464.88;;;10.55;54.65
40574;BME280;26283;49.020;8.644;2023-03-13T03:45:49;98460.06;;;10.57;54.65
40574;BME280;26283;49.020;8.644;2023-03-13T03:48:14;98461.94;;;10.56;54.63
40574;BME280;26283;49.020;8.644;2023-03-13T03:50:40;98454.66;;;10.57;54.63
40574;BME280;26283;49.020;8.644;2023-03-13T03:53:05;98451.97;;;10.57;54.63
40574;BME280;26283;49.020;8.644;2023-03-13T03:55:32;98455.50;;;10.57;54.64
40574;BME280;26283;49.020;8.644;2023-03-13T03:57:57;98461.69;;;10.58;54.63
40574;BME280;26283;49.020;8.644;2023-03-13T04:00:23;98454.44;;;10.58;54.62
40574;BME280;26283;49.020;8.644;2023-03-13T04:02:49;98457.94;;;10.59;54.63
40574;BME280;26283;49.020;8.644;2023-03-13T04:05:14;98449.88;;;10.59;54.62
40574;BME280;26283;49.020;8.644;2023-03-13T04:07:39;98440.72;;;10.60;54.63
40574;BME280;26283;49.020;8.644;2023-03-13T04:10:05;98445.28;;;10.59;54.63
40574;BME280;26283;49.020;8.644;2023-03-13T04:12:31;98431.00;;;10.59;54.61
40574;BME280;26283;49.020;8.644;2023-03-13T04:14:56;98420.00;;;10.60;54.61
40574;BME280;26283;49.020;8.644;2023-03-13T04:17:22;98426.16;;;10.61;54.62
40574;BME280;26283;49.020;8.644;2023-03-13T04:19:47;98421.59;;;10.61;54.62
40574;BME280;26283;49.020;8.644;2023-03-13T04:22:12;98421.59;;;10.61;54.62
40574;BME280;26283;49.020;8.644;2023-03-13T04:24:38;98417.03;;;10.62;54.62
40574;BME280;26283;49.020;8.644;2023-03-13T04:27:03;98410.81;;;10.61;54.62
40574;BME280;26283;49.020;8.644;2023-03-13T04:29:31;98406.25;;;10.62;54.60
40574;BME280;26283;49.020;8.644;2023-03-13T04:31:56;98395.47;;;10.62;54.62
40574;BME280;26283;49.020;8.644;2023-03-13T04:34:22;98394.41;;;10.63;54.64
40574;BME280;26283;49.020;8.644;2023-03-13T04:36:47;98390.09;;;10.62;54.63
40574;BME280;26283;49.020;8.644;2023-03-13T04:39:13;98391.72;;;10.63;54.64
40574;BME280;26283;49.020;8.644;2023-03-13T04:41:38;98390.66;;;10.64;54.64
40574;BME280;26283;49.020;8.644;2023-03-13T04:44:04;98389.84;;;10.63;54.63
40574;BME280;26283;49.020;8.644;2023-03-13T04:46:29;98389.84;;;10.63;54.62
40574;BME280;26283;49.020;8.644;2023-03-13T04:48:54;98393.94;;;10.66;54.63
40574;BME280;26283;49.020;8.644;2023-03-13T04:51:20;98384.22;;;10.65;54.63
40574;BME280;26283;49.020;8.644;2023-03-13T04:53:45;98377.78;;;10.66;54.63
40574;BME280;26283;49.020;8.644;2023-03-13T04:56:20;98393.94;;;10.66;54.64
40574;BME280;26283;49.020;8.644;2023-03-13T04:58:46;98381.28;;;10.67;54.64
40574;BME280;26283;49.020;8.644;2023-03-13T05:01:12;98383.97;;;10.67;54.64
40574;BME280;26283;49.020;8.644;2023-03-13T05:03:37;98396.41;;;10.68;54.65
40574;BME280;26283;49.020;8.644;2023-03-13T05:06:03;98377.78;;;10.66;54.62
40574;BME280;26283;49.020;8.644;2023-03-13T05:08:28;98387.25;;;10.69;54.64
40574;BME280;26283;49.020;8.644;2023-03-13T05:10:53;98370.28;;;10.68;54.64
40574;BME280;26283;49.020;8.644;2023-03-13T05:13:19;98369.22;;;10.69;54.65
40574;BME280;26283;49.020;8.644;2023-03-13T05:15:44;98353.06;;;10.69;54.67
40574;BME280;26283;49.020;8.644;2023-03-13T05:18:09;98369.22;;;10.69;54.68
40574;BME280;26283;49.020;8.644;2023-03-13T05:20:35;98366.53;;;10.69;54.68
40574;BME280;26283;49.020;8.644;2023-03-13T05:23:00;98381.62;;;10.70;54.69
40574;BME280;26283;49.020;8.644;2023-03-13T05:25:25;98388.66;;;10.71;54.69
40574;BME280;26283;49.020;8.644;2023-03-13T05:27:51;98377.87;;;10.71;54.69
40574;BME280;26283;49.020;8.644;2023-03-13T05:30:16;98377.66;;;10.73;54.69
40574;BME280;26283;49.020;8.644;2023-03-13T05:32:44;98367.94;;;10.72;54.70
40574;BME280;26283;49.020;8.644;2023-03-13T05:35:09;98369.56;;;10.73;54.71
40574;BME280;26283;49.020;8.644;2023-03-13T05:37:35;98371.44;;;10.72;54.74
40574;BME280;26283;49.020;8.644;2023-03-13T05:40:00;98370.37;;;10.73;54.75
40574;BME280;26283;49.020;8.644;2023-03-13T05:42:25;98357.72;;;10.74;54.75
40574;BME280;26283;49.020;8.644;2023-03-13T05:44:51;98372.00;;;10.74;54.75
40574;BME280;26283;49.020;8.644;2023-03-13T05:47:16;98361.22;;;10.74;54.78
40574;BME280;26283;49.020;8.644;2023-03-13T05:49:42;98356.66;;;10.75;54.80
40574;BME280;26283;49.020;8.644;2023-03-13T05:52:08;98373.66;;;10.75;54.80
40574;BME280;26283;49.020;8.644;2023-03-13T05:54:33;98372.59;;;10.76;54.81
40574;BME280;26283;49.020;8.644;2023-03-13T05:56:59;98361.00;;;10.76;54.79
40574;BME280;26283;49.020;8.644;2023-03-13T05:59:24;98371.53;;;10.77;54.82
40574;BME280;26283;49.020;8.644;2023-03-13T06:01:49;98370.47;;;10.78;54.82
40574;BME280;26283;49.020;8.644;2023-03-13T06:04:15;98371.53;;;10.77;54.82
40574;BME280;26283;49.020;8.644;2023-03-13T06:06:40;98353.50;;;10.78;54.83
40574;BME280;26283;49.020;8.644;2023-03-13T06:09:06;98346.22;;;10.78;54.85
40574;BME280;26283;49.020;8.644;2023-03-13T06:11:32;98344.34;;;10.79;54.88
40574;BME280;26283;49.020;8.644;2023-03-13T06:13:57;98354.87;;;10.80;54.89
40574;BME280;26283;49.020;8.644;2023-03-13T06:16:22;98365.66;;;10.80;54.88
40574;BME280;26283;49.020;8.644;2023-03-13T06:18:48;98365.66;;;10.80;54.88
40574;BME280;26283;49.020;8.644;2023-03-13T06:21:13;98344.09;;;10.80;54.88
40574;BME280;26283;49.020;8.644;2023-03-13T06:23:39;98354.87;;;10.80;54.88
40574;BME280;26283;49.020;8.644;2023-03-13T06:26:04;98367.31;;;10.81;54.89
40574;BME280;26283;49.020;8.644;2023-03-13T06:28:29;98368.13;;;10.82;54.90
40574;BME280;26283;49.020;8.644;2023-03-13T06:31:00;98388.59;;;10.83;54.93
40574;BME280;26283;49.020;8.644;2023-03-13T06:33:26;98367.84;;;10.83;54.95
40574;BME280;26283;49.020;8.644;2023-03-13T06:35:51;98366.78;;;10.84;54.97
40574;BME280;26283;49.020;8.644;2023-03-13T06:38:16;98372.19;;;10.84;54.95
40574;BME280;26283;49.020;8.644;2023-03-13T06:40:42;98367.63;;;10.85;55.00
40574;BME280;26283;49.020;8.644;2023-03-13T06:43:07;98372.19;;;10.84;55.00
40574;BME280;26283;49.020;8.644;2023-03-13T06:45:34;98364.91;;;10.85;55.02
40574;BME280;26283;49.020;8.644;2023-03-13T06:48:00;98361.97;;;10.86;55.03
40574;BME280;26283;49.020;8.644;2023-03-13T06:50:25;98368.19;;;10.87;55.00
40574;BME280;26283;49.020;8.644;2023-03-13T06:52:51;98355.53;;;10.87;54.98
40574;BME280;26283;49.020;8.644;2023-03-13T06:55:17;98367.94;;;10.88;55.02
40574;BME280;26283;49.020;8.644;2023-03-13T06:57:42;98367.94;;;10.88;55.08
40574;BME280;26283;49.020;8.644;2023-03-13T07:00:09;98374.16;;;10.89;55.10
40574;BME280;26283;49.020;8.644;2023-03-13T07:02:35;98364.19;;;10.89;55.10
40574;BME280;26283;49.020;8.644;2023-03-13T07:05:01;98371.22;;;10.90;55.09
40574;BME280;26283;49.020;8.644;2023-03-13T07:07:30;98375.78;;;10.90;55.09
40574;BME280;26283;49.020;8.644;2023-03-13T07:09:57;98365.84;;;10.90;55.10
40574;BME280;26283;49.020;8.644;2023-03-13T07:12:22;98356.69;;;10.91;55.09
40574;BME280;26283;49.020;8.644;2023-03-13T07:14:47;98360.19;;;10.92;55.08
40574;BME280;26283;49.020;8.644;2023-03-13T07:17:13;98352.13;;;10.92;55.05
40574;BME280;26283;49.020;8.644;2023-03-13T07:19:38;98355.63;;;10.92;55.10
40574;BME280;26283;49.020;8.644;2023-03-13T07:22:03;98343.78;;;10.93;55.12
40574;BME280;26283;49.020;8.644;2023-03-13T07:24:29;98341.66;;;10.95;55.13
40574;BME280;26283;49.020;8.644;2023-03-13T07:26:55;98345.44;;;10.94;55.11
40574;BME280;26283;49.020;8.644;2023-03-13T07:29:20;98347.06;;;10.95;55.11
40574;BME280;26283;49.020;8.644;2023-03-13T07:31:46;98340.03;;;10.94;55.11
40574;BME280;26283;49.020;8.644;2023-03-13T07:34:11;98333.34;;;10.97;55.11
40574;BME280;26283;49.020;8.644;2023-03-13T07:36:37;98327.94;;;10.97;55.08
40574;BME280;26283;49.020;8.644;2023-03-13T07:39:02;98311.78;;;10.97;55.05
40574;BME280;26283;49.020;8.644;2023-03-13T07:41:28;98316.13;;;10.98;55.10
40574;BME280;26283;49.020;8.644;2023-03-13T07:43:53;98317.75;;;10.99;55.14
40574;BME280;26283;49.020;8.644;2023-03-13T07:46:19;98313.16;;;10.99;55.17
40574;BME280;26283;49.020;8.644;2023-03-13T07:48:46;98314.81;;;11.01;55.19
40574;BME280;26283;49.020;8.644;2023-03-13T07:51:23;98296.50;;;11.03;55.18
40574;BME280;26283;49.020;8.644;2023-03-13T07:53:49;98302.16;;;11.01;55.18
40574;BME280;26283;49.020;8.644;2023-03-13T07:56:20;98307.28;;;11.03;55.17
40574;BME280;26283;49.020;8.644;2023-03-13T07:58:46;98302.72;;;11.03;55.17
40574;BME280;26283;49.020;8.644;2023-03-13T08:01:15;98303.53;;;11.04;55.16
40574;BME280;26283;49.020;8.644;2023-03-13T08:03:41;98313.50;;;11.03;55.17
40574;BME280;26283;49.020;8.644;2023-03-13T08:06:09;98299.75;;;11.05;55.15
40574;BME280;26283;49.020;8.644;2023-03-13T08:08:36;98302.44;;;11.05;55.16
40574;BME280;26283;49.020;8.644;2023-03-13T08:11:04;98308.66;;;11.05;55.13
40574;BME280;26283;49.020;8.644;2023-03-13T08:13:31;98329.97;;;11.07;55.13
40574;BME280;26283;49.020;8.644;2023-03-13T08:16:04;98313.00;;;11.06;55.15
40574;BME280;26283;49.020;8.644;2023-03-13T08:18:30;98310.28;;;11.06;55.15
40574;BME280;26283;49.020;8.644;2023-03-13T08:21:03;98317.31;;;11.07;55.13
40574;BME280;26283;49.020;8.644;2023-03-13T08:23:30;98323.28;;;11.09;55.13
40574;BME280;26283;49.020;8.644;2023-03-13T08:25:55;98318.72;;;11.10;55.14
40574;BME280;26283;49.020;8.644;2023-03-13T08:28:20;98326.81;;;11.10;55.12
40574;BME280;26283;49.020;8.644;2023-03-13T08:30:46;98323.87;;;11.11;55.12
40574;BME280;26283;49.020;8.644;2023-03-13T08:33:11;98319.28;;;11.12;55.11
40574;BME280;26283;49.020;8.644;2023-03-13T08:35:36;98320.09;;;11.12;55.11
40574;BME280;26283;49.020;8.644;2023-03-13T08:38:02;98317.41;;;11.12;55.14
40574;BME280;26283;49.020;8.644;2023-03-13T08:40:27;98327.13;;;11.13;55.13
40574;BME280;26283;49.020;8.644;2023-03-13T08:42:53;98334.16;;;11.14;55.09
40574;BME280;26283;49.020;8.644;2023-03-13T08:45:18;98323.38;;;11.14;55.05
40574;BME280;26283;49.020;8.644;2023-03-13T08:47:43;98339.56;;;11.14;55.04
40574;BME280;26283;49.020;8.644;2023-03-13T08:50:09;98348.22;;;11.16;55.04
40574;BME280;26283;49.020;8.644;2023-03-13T08:52:35;98353.63;;;11.16;55.03
40574;BME280;26283;49.020;8.644;2023-03-13T08:55:00;98339.91;;;11.18;55.02
40574;BME280;26283;49.020;8.644;2023-03-13T08:57:26;98362.28;;;11.18;55.15
40574;BME280;26283;49.020;8.644;2023-03-13T08:59:51;98361.31;;;11.24;57.10
40574;BME280;26283;49.020;8.644;2023-03-13T09:02:16;98359.81;;;11.33;58.42
40574;BME280;26283;49.020;8.644;2023-03-13T09:04:45;98354.03;;;11.42;59.18
40574;BME280;26283;49.020;8.644;2023-03-13T09:07:11;98354.41;;;11.50;59.30
40574;BME280;26283;49.020;8.644;2023-03-13T09:09:36;98355.56;;;11.54;58.67
40574;BME280;26283;49.020;8.644;2023-03-13T09:12:02;98351.81;;;11.55;58.42
40574;BME280;26283;49.020;8.644;2023-03-13T09:14:28;98358.25;;;11.54;58.39
40574;BME280;26283;49.020;8.644;2023-03-13T09:16:53;98347.72;;;11.53;58.48
40574;BME280;26283;49.020;8.644;2023-03-13T09:19:18;98352.53;;;11.51;58.50
40574;BME280;26283;49.020;8.644;2023-03-13T09:21:44;98343.62;;;11.50;58.47
40574;BME280;26283;49.020;8.644;2023-03-13T09:24:10;98345.75;;;11.48;58.37
40574;BME280;26283;49.020;8.644;2023-03-13T09:26:35;98339.53;;;11.48;58.26
40574;BME280;26283;49.020;8.644;2023-03-13T09:29:01;98334.41;;;11.46;58.16
40574;BME280;26283;49.020;8.644;2023-03-13T09:31:28;98335.22;;;11.47;58.03
40574;BME280;26283;49.020;8.644;2023-03-13T09:33:54;98330.91;;;11.46;57.90
40574;BME280;26283;49.020;8.644;2023-03-13T09:36:21;98327.38;;;11.45;57.77
40574;BME280;26283;49.020;8.644;2023-03-13T09:38:48;98324.69;;;11.45;57.62
40574;BME280;26283;49.020;8.644;2023-03-13T09:49:38;98318.47;;;11.45;57.14
40574;BME280;26283;49.020;8.644;2023-03-13T10:00:37;98307.44;;;11.46;56.75
40574;BME280;26283;49.020;8.644;2023-03-13T10:03:16;98316.34;;;11.47;56.69
40574;BME280;26283;49.020;8.644;2023-03-13T10:05:54;98311.78;;;11.47;56.64
40574;BME280;26283;49.020;8.644;2023-03-13T10:08:25;98304.47;;;11.48;56.58
40574;BME280;26283;49.020;8.644;2023-03-13T10:13:30;98303.16;;;11.50;56.44
40574;BME280;26283;49.020;8.644;2023-03-13T10:16:01;98297.75;;;11.50;56.40
40574;BME280;26283;49.020;8.644;2023-03-13T10:18:28;98300.22;;;11.52;56.31
40574;BME280;26283;49.020;8.644;2023-03-13T10:21:13;98287.53;;;11.52;56.25
40574;BME280;26283;49.020;8.644;2023-03-13T10:23:56;98290.25;;;11.52;56.19
40574;BME280;26283;49.020;8.644;2023-03-13T10:26:29;98281.91;;;11.54;56.10
40574;BME280;26283;49.020;8.644;2023-03-13T10:28:55;98281.66;;;11.55;56.02
40574;BME280;26283;49.020;8.644;2023-03-13T10:31:32;98283.28;;;11.56;55.98
40574;BME280;26283;49.020;8.644;2023-03-13T10:34:17;98276.25;;;11.55;55.96
40574;BME280;26283;49.020;8.644;2023-03-13T10:36:46;98270.37;;;11.58;55.92
40574;BME280;26283;49.020;8.644;2023-03-13T10:39:29;98278.47;;;11.58;55.83
40574;BME280;26283;49.020;8.644;2023-03-13T10:42:08;98266.59;;;11.59;55.79
40574;BME280;26283;49.020;8.644;2023-03-13T10:44:37;98261.78;;;11.61;56.07
40574;BME280;26283;49.020;8.644;2023-03-13T10:47:02;98252.38;;;11.64;56.13
40574;BME280;26283;49.020;8.644;2023-03-13T10:49:30;98258.34;;;11.66;56.05
40574;BME280;26283;49.020;8.644;2023-03-13T10:52:01;98245.66;;;11.66;56.00
40574;BME280;26283;49.020;8.644;2023-03-13T10:54:32;98233.56;;;11.69;55.93
40574;BME280;26283;49.020;8.644;2023-03-13T10:57:09;98230.84;;;11.69;55.84
40574;BME280;26283;49.020;8.644;2023-03-13T10:59:39;98232.47;;;11.70;55.72
40574;BME280;26283;49.020;8.644;2023-03-13T11:04:44;98216.00;;;11.72;55.57
40574;BME280;26283;49.020;8.644;2023-03-13T11:07:34;98214.12;;;11.72;55.48
40574;BME280;26283;49.020;8.644;2023-03-13T11:10:23;98206.84;;;11.73;55.45
40574;BME280;26283;49.020;8.644;2023-03-13T11:12:53;98199.31;;;11.75;55.37
40574;BME280;26283;49.020;8.644;2023-03-13T11:18:05;98198.25;;;11.76;55.27
40574;BME280;26283;49.020;8.644;2023-03-13T11:20:43;98186.44;;;11.77;55.20
40574;BME280;26283;49.020;8.644;2023-03-13T11:23:33;98183.47;;;11.78;55.18
40574;BME280;26283;49.020;8.644;2023-03-13T11:26:13;98177.84;;;11.80;55.17
40574;BME280;26283;49.020;8.644;2023-03-13T11:29:14;98175.12;;;11.80;55.09
40574;BME280;26283;49.020;8.644;2023-03-13T11:31:46;98166.78;;;11.81;55.07
40574;BME280;26283;49.020;8.644;2023-03-13T11:34:25;98151.41;;;11.82;54.98
40574;BME280;26283;49.020;8.644;2023-03-13T11:37:03;98152.22;;;11.82;54.96
40574;BME280;26283;49.020;8.644;2023-03-13T11:48:06;98129.38;;;11.90;55.09
40574;BME280;26283;49.020;8.644;2023-03-13T11:51:07;98125.56;;;11.91;55.09
40574;BME280;26283;49.020;8.644;2023-03-13T11:57:23;98107.22;;;11.93;54.98
40574;BME280;26283;49.020;8.644;2023-03-13T12:02:35;98106.16;;;11.94;54.91
40574;BME280;26283;49.020;8.644;2023-03-13T12:05:07;98092.41;;;11.95;54.85
40574;BME280;26283;49.020;8.644;2023-03-13T12:07:57;98076.78;;;11.97;54.82
40574;BME280;26283;49.020;8.644;2023-03-13T12:10:36;98076.53;;;11.99;54.78
40574;BME280;26283;49.020;8.644;2023-03-13T12:13:26;98083.56;;;12.00;54.74
40574;BME280;26283;49.020;8.644;2023-03-13T12:15:58;98060.62;;;12.02;54.71
40574;BME280;26283;49.020;8.644;2023-03-13T12:18:31;98064.16;;;12.03;54.65
40574;BME280;26283;49.020;8.644;2023-03-13T12:21:20;98052.28;;;12.04;54.59
40574;BME280;26283;49.020;8.644;2023-03-13T12:24:03;98046.62;;;12.06;54.56
40574;BME280;26283;49.020;8.644;2023-03-13T12:26:46;98045.53;;;12.07;54.52
40574;BME280;26283;49.020;8.644;2023-03-13T12:39:49;98005.91;;;12.12;54.36
40574;BME280;26283;49.020;8.644;2023-03-13T12:44:45;97999.97;;;12.15;54.35
40574;BME280;26283;49.020;8.644;2023-03-13T12:47:32;97982.69;;;12.16;54.32
40574;BME280;26283;49.020;8.644;2023-03-13T13:01:39;97952.75;;;12.23;54.11
40574;BME280;26283;49.020;8.644;2023-03-13T13:04:17;97944.41;;;12.24;54.10
40574;BME280;26283;49.020;8.644;2023-03-13T13:06:57;97940.38;;;12.27;54.04
40574;BME280;26283;49.020;8.644;2023-03-13T13:09:31;97933.88;;;12.28;54.03
40574;BME280;26283;49.020;8.644;2023-03-13T13:12:01;97928.22;;;12.29;54.02
40574;BME280;26283;49.020;8.644;2023-03-13T13:17:12;97918.78;;;12.32;53.97
40574;BME280;26283;49.020;8.644;2023-03-13T13:25:01;97894.22;;;12.39;53.88
40574;BME280;26283;49.020;8.644;2023-03-13T13:27:47;97885.03;;;12.40;53.81
40574;BME280;26283;49.020;8.644;2023-03-13T13:35:33;97879.66;;;12.45;53.74
40574;BME280;26283;49.020;8.644;2023-03-13T13:43:30;97859.72;;;12.51;53.61
40574;BME280;26283;49.020;8.644;2023-03-13T13:48:44;97852.69;;;12.55;53.58
40574;BME280;26283;49.020;8.644;2023-03-13T13:53:44;97825.12;;;12.58;53.50
40574;BME280;26283;49.020;8.644;2023-03-13T13:58:59;97804.34;;;12.63;53.44
40574;BME280;26283;49.020;8.644;2023-03-13T14:01:26;97801.38;;;12.65;53.38
40574;BME280;26283;49.020;8.644;2023-03-13T14:03:53;97807.06;;;12.68;53.36
40574;BME280;26283;49.020;8.644;2023-03-13T14:06:31;97795.97;;;12.70;53.37
40574;BME280;26283;49.020;8.644;2023-03-13T14:09:24;97784.09;;;12.71;53.34
40574;BME280;26283;49.020;8.644;2023-03-13T14:11:55;97784.38;;;12.75;53.34
40574;BME280;26283;49.020;8.644;2023-03-13T14:14:21;97772.47;;;12.76;53.27
40574;BME280;26283;49.020;8.644;2023-03-13T14:16:48;97771.09;;;12.78;53.25
40574;BME280;26283;49.020;8.644;2023-03-13T14:19:33;97772.72;;;12.79;53.22
40574;BME280;26283;49.020;8.644;2023-03-13T14:22:10;97769.50;;;12.82;53.20
40574;BME280;26283;49.020;8.644;2023-03-13T14:24:38;97757.88;;;12.82;53.14
40574;BME280;26283;49.020;8.644;2023-03-13T14:27:18;97752.19;;;12.83;53.11
40574;BME280;26283;49.020;8.644;2023-03-13T14:30:10;97750.03;;;12.85;53.11
40574;BME280;26283;49.020;8.644;2023-03-13T14:32:36;97737.31;;;12.86;53.08
40574;BME280;26283;49.020;8.644;2023-03-13T14:35:04;97737.06;;;12.87;53.04
40574;BME280;26283;49.020;8.644;2023-03-13T14:37:34;97725.97;;;12.89;53.03
40574;BME280;26283;49.020;8.644;2023-03-13T14:40:08;97743.56;;;12.91;53.00
40574;BME280;26283;49.020;8.644;2023-03-13T14:42:39;97704.34;;;12.94;52.96
40574;BME280;26283;49.020;8.644;2023-03-13T14:45:15;97695.16;;;12.95;52.91
40574;BME280;26283;49.020;8.644;2023-03-13T14:47:45;97687.59;;;12.97;52.90
40574;BME280;26283;49.020;8.644;2023-03-13T14:50:13;97682.72;;;12.99;52.88